createdAt,value
2017-08-09T00:00:44.641Z,15.70
2017-08-09T00:03:12.053Z,15.70
2017-08-09T00:05:39.454Z,15.60
2017-08-09T00:08:06.871Z,15.30
2017-08-09T00:10:34.277Z,15.10
2017-08-09T00:13:02.854Z,15.00
2017-08-09T00:15:30.273Z,15.00
2017-08-09T00:17:57.682Z,15.00
2017-08-09T00:20:25.096Z,15.00
2017-08-09T00:22:52.518Z,15.00
2017-08-09T00:25:19.933Z,15.00
2017-08-09T00:27:47.702Z,14.80
2017-08-09T00:30:15.766Z,14.70
2017-08-09T00:32:43.162Z,14.50
2017-08-09T00:35:11.406Z,14.40
2017-08-09T00:37:38.844Z,14.40
2017-08-09T00:40:06.258Z,14.50
2017-08-09T00:42:34.450Z,14.60
2017-08-09T00:45:01.866Z,14.60
2017-08-09T00:47:29.261Z,14.70
2017-08-09T00:49:56.670Z,14.70
2017-08-09T00:52:24.081Z,14.90
2017-08-09T00:54:51.492Z,14.80
2017-08-09T00:57:19.311Z,14.80
2017-08-09T00:59:46.726Z,14.80
2017-08-09T01:02:14.954Z,14.80
2017-08-09T01:04:43.130Z,14.70
2017-08-09T01:07:10.543Z,14.70
2017-08-09T01:09:37.962Z,14.60
2017-08-09T01:12:05.751Z,14.50
2017-08-09T01:14:33.161Z,14.40
2017-08-09T01:17:00.575Z,14.20
2017-08-09T01:19:27.989Z,14.20
2017-08-09T01:27:41.430Z,14.00
2017-08-09T01:30:08.846Z,13.80
2017-08-09T01:32:36.266Z,13.70
2017-08-09T01:35:03.685Z,13.70
2017-08-09T01:37:31.101Z,13.80
2017-08-09T01:39:58.517Z,13.90
2017-08-09T01:42:25.926Z,13.90
2017-08-09T01:44:54.110Z,13.80
2017-08-09T01:47:21.526Z,13.80
2017-08-09T01:49:48.945Z,13.80
2017-08-09T01:52:17.025Z,13.70
2017-08-09T01:54:44.449Z,13.60
2017-08-09T01:57:12.391Z,13.60
2017-08-09T01:59:39.806Z,13.40
2017-08-09T02:02:07.214Z,13.30
2017-08-09T02:04:35.138Z,13.30
2017-08-09T02:07:02.554Z,13.40
2017-08-09T02:09:29.982Z,13.50
2017-08-09T02:11:57.394Z,13.50
2017-08-09T02:14:24.823Z,13.40
2017-08-09T02:16:53.626Z,13.40
2017-08-09T02:19:21.044Z,13.40
2017-08-09T02:21:48.449Z,13.40
2017-08-09T02:24:15.874Z,13.40
2017-08-09T02:26:44.054Z,13.50
2017-08-09T02:29:12.235Z,13.40
2017-08-09T02:31:39.638Z,13.40
2017-08-09T02:34:07.059Z,13.30
2017-08-09T02:36:35.465Z,13.30
2017-08-09T02:39:02.887Z,13.40
2017-08-09T02:41:30.294Z,13.50
2017-08-09T02:43:57.724Z,13.60
2017-08-09T02:46:25.135Z,13.80
2017-08-09T02:48:53.309Z,13.80
2017-08-09T02:51:20.738Z,13.80
2017-08-09T02:53:48.142Z,13.90
2017-08-09T02:56:15.557Z,13.90
2017-08-09T02:58:42.980Z,13.90
2017-08-09T03:01:10.745Z,13.90
2017-08-09T03:03:38.134Z,13.90
2017-08-09T03:06:05.554Z,13.80
2017-08-09T03:08:32.967Z,13.80
2017-08-09T03:11:00.387Z,13.80
2017-08-09T03:13:27.819Z,13.80
2017-08-09T03:15:55.221Z,13.60
2017-08-09T03:18:22.638Z,13.50
2017-08-09T03:23:47.078Z,13.50
2017-08-09T03:26:14.801Z,13.50
2017-08-09T03:28:42.591Z,13.50
2017-08-09T03:31:10.012Z,13.40
2017-08-09T03:33:37.430Z,13.40
2017-08-09T03:36:06.010Z,13.30
2017-08-09T03:38:33.542Z,13.30
2017-08-09T03:41:01.626Z,13.30
2017-08-09T03:43:29.048Z,13.20
2017-08-09T03:45:56.453Z,13.20
2017-08-09T03:48:24.641Z,13.00
2017-08-09T03:50:52.068Z,13.00
2017-08-09T03:53:19.474Z,12.90
2017-08-09T03:55:46.887Z,12.90
2017-08-09T03:58:14.300Z,12.80
2017-08-09T04:00:41.714Z,12.80
2017-08-09T04:03:09.901Z,12.80
2017-08-09T04:05:37.350Z,12.80
2017-08-09T04:08:04.776Z,12.80
2017-08-09T04:10:32.182Z,12.70
2017-08-09T04:12:59.597Z,12.70
2017-08-09T04:15:27.709Z,12.70
2017-08-09T04:17:55.124Z,12.60
2017-08-09T04:20:22.539Z,12.40
2017-08-09T04:22:49.951Z,12.40
2017-08-09T04:25:17.367Z,12.30
2017-08-09T04:27:45.891Z,12.30
2017-08-09T04:30:14.078Z,12.40
2017-08-09T04:32:41.506Z,12.40
2017-08-09T04:35:08.901Z,12.50
2017-08-09T04:37:37.210Z,12.60
2017-08-09T04:40:04.622Z,12.70
2017-08-09T04:42:32.034Z,12.90
2017-08-09T04:44:59.464Z,13.10
2017-08-09T04:47:26.873Z,13.20
2017-08-09T04:49:55.576Z,13.70
2017-08-09T04:52:22.983Z,13.60
2017-08-09T04:54:50.394Z,13.90
2017-08-09T04:57:17.812Z,13.90
2017-08-09T04:59:45.226Z,14.10
2017-08-09T05:02:12.665Z,14.30
2017-08-09T05:04:40.058Z,14.50
2017-08-09T05:07:07.475Z,14.80
2017-08-09T05:09:34.878Z,15.00
2017-08-09T05:12:02.311Z,15.00
2017-08-09T05:14:29.714Z,15.10
2017-08-09T05:16:57.898Z,14.70
2017-08-09T05:19:25.313Z,14.70
2017-08-09T05:21:52.729Z,14.60
2017-08-09T05:24:20.157Z,14.50
2017-08-09T05:26:47.942Z,14.40
2017-08-09T05:29:15.365Z,14.40
2017-08-09T05:31:42.782Z,14.40
2017-08-09T05:34:10.866Z,14.40
2017-08-09T05:36:38.274Z,14.50
2017-08-09T05:39:05.686Z,14.70
2017-08-09T05:41:33.101Z,14.80
2017-08-09T05:44:00.518Z,15.00
2017-08-09T05:46:27.935Z,14.80
2017-08-09T05:48:55.362Z,14.80
2017-08-09T05:51:23.540Z,14.70
2017-08-09T05:53:50.952Z,14.70
2017-08-09T05:56:18.361Z,14.60
2017-08-09T05:58:45.794Z,15.00
2017-08-09T06:01:13.971Z,16.30
2017-08-09T06:03:41.381Z,16.30
2017-08-09T06:06:08.805Z,16.70
2017-08-09T06:08:36.202Z,17.20
2017-08-09T06:11:03.615Z,17.20
2017-08-09T06:13:31.026Z,17.40
2017-08-09T06:15:58.442Z,17.60
2017-08-09T06:18:26.022Z,17.80
2017-08-09T06:20:53.442Z,18.00
2017-08-09T06:23:20.854Z,17.90
2017-08-09T06:25:48.276Z,18.10
2017-08-09T06:28:15.686Z,18.60
2017-08-09T06:30:43.111Z,19.10
2017-08-09T06:33:10.513Z,19.40
2017-08-09T06:35:37.948Z,19.80
2017-08-09T06:38:05.358Z,20.00
2017-08-09T06:40:32.770Z,20.50
2017-08-09T06:43:00.958Z,19.70
2017-08-09T06:45:28.894Z,19.70
2017-08-09T06:47:57.214Z,19.80
2017-08-09T06:50:24.629Z,19.90
2017-08-09T06:52:52.047Z,20.40
2017-08-09T06:55:19.459Z,20.70
2017-08-09T06:57:47.645Z,20.80
2017-08-09T07:00:15.051Z,20.80
2017-08-09T07:02:42.470Z,20.50
2017-08-09T07:05:09.890Z,20.30
2017-08-09T07:07:37.327Z,20.70
2017-08-09T07:10:05.498Z,21.60
2017-08-09T07:12:33.314Z,21.80
2017-08-09T07:15:00.730Z,22.00
2017-08-09T07:17:28.147Z,22.10
2017-08-09T07:19:55.606Z,22.30
2017-08-09T07:25:15.917Z,22.50
2017-08-09T07:27:43.338Z,22.60
2017-08-09T07:30:10.758Z,22.70
2017-08-09T07:32:38.174Z,23.00
2017-08-09T07:35:05.597Z,23.20
2017-08-09T07:37:33.785Z,22.70
2017-08-09T07:40:01.194Z,22.70
2017-08-09T07:42:29.406Z,22.70
2017-08-09T07:44:57.456Z,23.10
2017-08-09T07:47:24.869Z,23.40
2017-08-09T07:49:52.285Z,23.20
2017-08-09T07:52:21.250Z,24.80
2017-08-09T07:54:49.591Z,24.70
2017-08-09T07:57:17.001Z,25.40
2017-08-09T07:59:45.205Z,24.70
2017-08-09T08:02:12.619Z,24.70
2017-08-09T08:04:40.028Z,24.20
2017-08-09T08:07:07.495Z,24.40
2017-08-09T08:09:34.904Z,24.50
2017-08-09T08:12:02.313Z,24.50
2017-08-09T08:14:29.737Z,24.40
2017-08-09T08:16:57.149Z,24.10
2017-08-09T08:19:24.568Z,24.10
2017-08-09T08:21:51.975Z,24.60
2017-08-09T08:24:19.386Z,25.60
2017-08-09T08:26:46.806Z,25.70
2017-08-09T08:29:14.215Z,24.80
2017-08-09T08:31:41.645Z,24.30
2017-08-09T08:34:09.725Z,23.80
2017-08-09T08:36:37.114Z,23.70
2017-08-09T08:39:04.537Z,23.90
2017-08-09T08:41:31.946Z,24.30
2017-08-09T08:43:59.366Z,24.00
2017-08-09T08:46:26.787Z,23.40
2017-08-09T08:48:54.194Z,23.20
2017-08-09T08:51:21.617Z,23.10
2017-08-09T08:53:49.030Z,23.90
2017-08-09T08:56:16.445Z,23.90
2017-08-09T08:58:43.885Z,24.20
2017-08-09T09:01:11.302Z,24.80
2017-08-09T09:03:39.495Z,27.10
2017-08-09T09:06:06.901Z,27.00
2017-08-09T09:08:34.328Z,27.50
2017-08-09T09:11:01.746Z,27.80
2017-08-09T09:13:29.179Z,27.70
2017-08-09T09:15:56.582Z,27.90
2017-08-09T09:18:24.000Z,26.80
2017-08-09T09:26:48.069Z,26.30
2017-08-09T09:29:16.131Z,26.40
2017-08-09T09:31:43.542Z,27.20
2017-08-09T09:34:10.962Z,28.00
2017-08-09T09:36:38.380Z,28.30
2017-08-09T09:39:05.793Z,29.10
2017-08-09T09:41:33.205Z,29.30
2017-08-09T09:44:00.609Z,29.50
2017-08-09T09:46:28.034Z,29.90
2017-08-09T09:48:55.446Z,30.90
2017-08-09T09:51:23.638Z,29.90
2017-08-09T09:53:51.055Z,29.90
2017-08-09T09:56:18.484Z,28.40
2017-08-09T09:58:47.691Z,27.60
2017-08-09T10:01:15.105Z,27.30
2017-08-09T10:03:42.518Z,26.60
2017-08-09T10:06:09.941Z,26.00
2017-08-09T10:08:37.354Z,25.80
2017-08-09T10:11:05.545Z,25.90
2017-08-09T10:13:33.642Z,25.80
2017-08-09T10:16:01.067Z,25.60
2017-08-09T10:18:28.485Z,26.30
2017-08-09T10:21:14.521Z,26.50
2017-08-09T10:23:41.938Z,26.90
2017-08-09T10:26:09.362Z,27.80
2017-08-09T10:28:36.781Z,28.80
2017-08-09T10:31:04.806Z,29.30
2017-08-09T10:33:32.244Z,29.50
2017-08-09T10:35:59.645Z,29.40
2017-08-09T10:38:28.599Z,30.00
2017-08-09T10:40:56.022Z,30.00
2017-08-09T10:43:23.441Z,30.40
2017-08-09T10:45:50.858Z,30.10
2017-08-09T10:48:18.284Z,30.30
2017-08-09T10:50:46.218Z,31.00
2017-08-09T10:53:21.630Z,31.40
2017-08-09T10:55:49.042Z,31.90
2017-08-09T10:58:17.229Z,31.30
2017-08-09T11:00:44.650Z,31.30
2017-08-09T11:03:13.000Z,30.40
2017-08-09T11:05:40.421Z,30.30
2017-08-09T11:08:07.839Z,29.90
2017-08-09T11:10:35.269Z,29.90
2017-08-09T11:13:02.683Z,30.00
2017-08-09T11:15:30.107Z,30.00
2017-08-09T11:17:57.517Z,30.00
2017-08-09T11:20:24.942Z,30.70
2017-08-09T11:22:52.354Z,30.90
2017-08-09T11:25:19.782Z,30.40
2017-08-09T11:27:47.181Z,30.10
2017-08-09T11:30:14.618Z,30.10
2017-08-09T11:32:42.034Z,30.70
2017-08-09T11:35:09.459Z,31.00
2017-08-09T11:37:36.865Z,29.40
2017-08-09T11:40:04.310Z,29.00
2017-08-09T11:42:31.723Z,27.80
2017-08-09T11:44:59.133Z,27.00
2017-08-09T11:47:26.566Z,26.90
2017-08-09T11:49:54.745Z,27.00
2017-08-09T11:52:22.185Z,27.00
2017-08-09T11:54:50.365Z,27.30
2017-08-09T11:57:19.227Z,27.20
2017-08-09T11:59:46.646Z,27.20
2017-08-09T12:02:14.065Z,26.60
2017-08-09T12:04:42.253Z,26.60
2017-08-09T12:07:10.465Z,26.60
2017-08-09T12:09:37.877Z,26.30
2017-08-09T12:12:05.297Z,26.20
2017-08-09T12:14:32.702Z,25.30
2017-08-09T12:17:00.122Z,25.40
2017-08-09T12:19:27.533Z,26.60
2017-08-09T12:21:54.946Z,27.60
2017-08-09T12:24:22.367Z,28.10
2017-08-09T12:26:49.773Z,28.10
2017-08-09T12:29:17.201Z,27.90
2017-08-09T12:31:44.622Z,28.40
2017-08-09T12:34:12.050Z,29.50
2017-08-09T12:36:39.458Z,30.20
2017-08-09T12:39:07.650Z,30.20
2017-08-09T12:41:35.074Z,30.00
2017-08-09T12:44:02.486Z,30.00
2017-08-09T12:46:29.918Z,30.20
2017-08-09T12:48:57.323Z,30.30
2017-08-09T12:51:24.738Z,30.30
2017-08-09T12:53:52.154Z,30.20
2017-08-09T12:56:19.565Z,30.30
2017-08-09T12:58:47.004Z,30.80
2017-08-09T13:01:14.421Z,30.90
2017-08-09T13:03:41.830Z,31.10
2017-08-09T13:06:09.244Z,31.60
2017-08-09T13:08:36.669Z,31.90
2017-08-09T13:11:04.090Z,31.40
2017-08-09T13:13:32.998Z,30.40
2017-08-09T13:16:00.413Z,30.40
2017-08-09T13:18:27.827Z,29.90
2017-08-09T13:29:56.164Z,28.20
2017-08-09T13:32:29.364Z,28.20
2017-08-09T13:34:56.782Z,28.40
2017-08-09T13:37:24.206Z,28.60
2017-08-09T13:39:51.623Z,29.00
2017-08-09T13:42:20.211Z,29.50
2017-08-09T13:44:47.626Z,30.30
2017-08-09T13:47:15.821Z,31.40
2017-08-09T13:49:43.225Z,31.30
2017-08-09T13:52:10.637Z,31.30
2017-08-09T13:54:38.046Z,31.00
2017-08-09T13:57:05.461Z,31.50
2017-08-09T13:59:32.869Z,32.20
2017-08-09T14:02:01.049Z,33.60
2017-08-09T14:04:29.233Z,33.40
2017-08-09T14:06:56.641Z,33.40
2017-08-09T14:09:24.062Z,32.80
2017-08-09T14:11:51.473Z,32.00
2017-08-09T14:14:18.898Z,31.40
2017-08-09T14:16:46.302Z,30.10
2017-08-09T14:19:14.482Z,27.70
2017-08-09T14:21:50.479Z,28.10
2017-08-09T14:24:17.885Z,28.10
2017-08-09T14:26:46.067Z,30.20
2017-08-09T14:29:14.266Z,31.50
2017-08-09T14:31:41.742Z,31.50
2017-08-09T14:34:09.928Z,32.00
2017-08-09T14:36:38.761Z,32.50
2017-08-09T14:39:07.854Z,32.70
2017-08-09T14:41:36.042Z,32.60
2017-08-09T14:44:03.450Z,32.60
2017-08-09T14:46:31.007Z,32.50
2017-08-09T14:48:58.395Z,31.90
2017-08-09T14:51:26.582Z,31.60
2017-08-09T14:53:53.990Z,31.60
2017-08-09T14:56:21.414Z,31.50
2017-08-09T14:58:49.633Z,31.20
2017-08-09T15:01:17.049Z,31.50
2017-08-09T15:03:44.454Z,31.80
2017-08-09T15:06:11.874Z,30.90
2017-08-09T15:08:39.286Z,30.40
2017-08-09T15:11:07.469Z,31.20
2017-08-09T15:13:34.877Z,31.20
2017-08-09T15:16:02.296Z,31.70
2017-08-09T15:18:30.262Z,31.90
2017-08-09T15:32:31.508Z,30.10
2017-08-09T15:34:58.935Z,28.60
2017-08-09T15:37:26.363Z,27.30
2017-08-09T15:39:53.782Z,25.80
2017-08-09T15:42:21.204Z,26.00
2017-08-09T15:44:48.619Z,26.50
2017-08-09T15:47:16.056Z,26.60
2017-08-09T15:49:43.511Z,27.00
2017-08-09T15:52:10.897Z,27.60
2017-08-09T15:54:38.325Z,28.50
2017-08-09T15:57:05.745Z,27.60
2017-08-09T15:59:33.161Z,27.40
2017-08-09T16:02:00.579Z,26.80
2017-08-09T16:04:28.760Z,26.90
2017-08-09T16:06:57.095Z,26.40
2017-08-09T16:09:24.519Z,26.00
2017-08-09T16:11:52.082Z,26.50
2017-08-09T16:14:19.488Z,27.30
2017-08-09T16:16:46.890Z,28.10
2017-08-09T16:19:14.325Z,27.50
2017-08-09T16:21:54.833Z,26.60
2017-08-09T16:24:23.009Z,27.40
2017-08-09T16:26:51.199Z,27.50
2017-08-09T16:29:18.625Z,27.40
2017-08-09T16:31:46.809Z,27.10
2017-08-09T16:34:14.986Z,26.40
2017-08-09T16:36:42.643Z,26.40
2017-08-09T16:39:10.041Z,26.30
2017-08-09T16:41:37.466Z,26.40
2017-08-09T16:44:04.883Z,25.70
2017-08-09T16:46:32.309Z,25.20
2017-08-09T16:48:59.717Z,25.10
2017-08-09T16:51:27.750Z,25.40
2017-08-09T16:53:55.168Z,25.40
2017-08-09T16:56:22.826Z,25.00
2017-08-09T16:58:50.246Z,24.40
2017-08-09T17:01:17.682Z,23.90
2017-08-09T17:03:45.089Z,23.70
2017-08-09T17:06:12.506Z,23.50
2017-08-09T17:08:39.926Z,23.30
2017-08-09T17:11:07.349Z,23.20
2017-08-09T17:13:34.765Z,22.90
2017-08-09T17:16:02.183Z,22.60
2017-08-09T17:18:29.702Z,22.30
2017-08-09T17:20:57.116Z,22.50
2017-08-09T17:23:24.535Z,22.60
2017-08-09T17:25:52.723Z,22.60
2017-08-09T17:28:20.130Z,22.60
2017-08-09T17:30:47.781Z,22.60
2017-08-09T17:33:15.200Z,22.60
2017-08-09T17:35:42.601Z,22.60
2017-08-09T17:38:10.815Z,22.60
2017-08-09T17:40:40.102Z,22.30
2017-08-09T17:43:08.284Z,22.20
2017-08-09T17:45:36.471Z,22.20
2017-08-09T17:48:04.642Z,22.20
2017-08-09T17:50:32.060Z,22.20
2017-08-09T17:52:59.474Z,22.30
2017-08-09T17:55:26.905Z,22.30
2017-08-09T17:57:55.101Z,22.20
2017-08-09T18:00:22.798Z,22.00
2017-08-09T18:02:51.181Z,21.90
2017-08-09T18:05:18.607Z,21.90
2017-08-09T18:07:46.027Z,21.80
2017-08-09T18:10:14.216Z,21.70
2017-08-09T18:12:41.623Z,21.70
2017-08-09T18:15:09.052Z,21.70
2017-08-09T18:17:36.495Z,21.50
2017-08-09T18:20:04.671Z,21.20
2017-08-09T18:22:32.086Z,21.20
2017-08-09T18:24:59.531Z,21.10
2017-08-09T18:27:26.944Z,20.70
2017-08-09T18:29:54.343Z,20.40
2017-08-09T18:32:21.779Z,20.00
2017-08-09T18:34:49.178Z,19.80
2017-08-09T18:37:16.599Z,19.60
2017-08-09T18:39:45.829Z,19.40
2017-08-09T18:42:14.678Z,19.50
2017-08-09T18:44:42.086Z,19.50
2017-08-09T18:47:10.270Z,19.60
2017-08-09T18:49:37.686Z,19.60
2017-08-09T18:52:05.110Z,19.60
2017-08-09T18:54:32.530Z,19.70
2017-08-09T18:56:59.944Z,19.60
2017-08-09T18:59:27.345Z,19.50
2017-08-09T19:04:53.766Z,19.10
2017-08-09T19:07:21.169Z,19.00
2017-08-09T19:09:48.578Z,19.10
2017-08-09T19:12:15.999Z,19.20
2017-08-09T19:14:43.411Z,19.30
2017-08-09T19:17:11.598Z,18.40
2017-08-09T19:19:39.010Z,18.30
2017-08-09T19:22:06.450Z,18.20
2017-08-09T19:24:33.860Z,18.40
2017-08-09T19:27:02.041Z,18.90
2017-08-09T19:29:29.446Z,18.90
2017-08-09T19:31:57.241Z,18.90
2017-08-09T19:34:25.426Z,18.80
2017-08-09T19:36:53.621Z,18.80
2017-08-09T19:39:21.021Z,18.70
2017-08-09T19:41:48.433Z,18.70
2017-08-09T19:44:15.841Z,18.80
2017-08-09T19:46:43.256Z,18.80
2017-08-09T19:49:10.677Z,18.90
2017-08-09T19:51:38.877Z,18.70
2017-08-09T19:54:06.319Z,18.70
2017-08-09T19:56:34.556Z,18.70
2017-08-09T19:59:02.652Z,18.70
2017-08-09T20:01:30.047Z,18.80
2017-08-09T20:03:58.320Z,18.70
2017-08-09T20:06:25.722Z,18.50
2017-08-09T20:08:53.146Z,18.30
2017-08-09T20:11:20.563Z,18.20
2017-08-09T20:13:47.965Z,18.00
2017-08-09T20:16:15.386Z,18.00
2017-08-09T20:18:42.790Z,18.10
2017-08-09T20:21:10.215Z,18.20
2017-08-09T20:23:37.625Z,18.20
2017-08-09T20:26:05.050Z,18.30
2017-08-09T20:28:32.467Z,18.30
2017-08-09T20:30:59.882Z,18.40
2017-08-09T20:33:27.285Z,18.50
2017-08-09T20:35:54.713Z,18.50
2017-08-09T20:38:22.886Z,18.50
2017-08-09T20:40:51.070Z,18.50
2017-08-09T20:43:18.766Z,18.50
2017-08-09T20:45:46.839Z,18.50
2017-08-09T20:48:14.610Z,18.50
2017-08-09T20:50:42.031Z,18.50
2017-08-09T20:53:11.393Z,18.40
2017-08-09T20:55:38.802Z,18.20
2017-08-09T20:58:06.226Z,18.20
2017-08-09T21:03:27.738Z,18.20
2017-08-09T21:05:55.150Z,18.10
2017-08-09T21:08:22.565Z,18.00
2017-08-09T21:10:50.498Z,17.90
2017-08-09T21:13:17.914Z,17.80
2017-08-09T21:15:45.322Z,17.80
2017-08-09T21:18:12.738Z,17.70
2017-08-09T21:20:40.940Z,17.70
2017-08-09T21:23:08.353Z,17.50
2017-08-09T21:25:35.770Z,17.40
2017-08-09T21:28:03.198Z,17.20
2017-08-09T21:30:30.602Z,17.10
2017-08-09T21:32:58.027Z,17.00
2017-08-09T21:35:25.450Z,17.10
2017-08-09T21:37:52.870Z,17.00
2017-08-09T21:40:20.279Z,16.90
2017-08-09T21:42:47.690Z,16.80
2017-08-09T21:45:15.874Z,16.80
2017-08-09T21:47:43.284Z,16.80
2017-08-09T21:50:10.721Z,16.80
2017-08-09T21:52:38.130Z,16.80
2017-08-09T21:55:05.550Z,16.90
2017-08-09T21:57:32.966Z,17.00
2017-08-09T22:00:00.378Z,16.90
2017-08-09T22:02:27.805Z,16.40
2017-08-09T22:04:55.221Z,15.90
2017-08-09T22:07:22.637Z,15.50
2017-08-09T22:09:50.054Z,15.30
2017-08-09T22:12:17.464Z,14.90
2017-08-09T22:14:44.901Z,14.60
2017-08-09T22:17:12.320Z,14.50
2017-08-09T22:19:39.718Z,14.50
2017-08-09T22:22:07.133Z,14.50
2017-08-09T22:24:34.550Z,14.60
2017-08-09T22:27:01.966Z,14.80
2017-08-09T22:29:29.378Z,14.90
2017-08-09T22:31:57.566Z,14.90
2017-08-09T22:34:24.974Z,15.00
2017-08-09T22:36:52.398Z,14.90
2017-08-09T22:39:19.806Z,14.90
2017-08-09T22:41:47.221Z,14.90
2017-08-09T22:44:14.643Z,14.60
2017-08-09T22:46:42.058Z,14.50
2017-08-09T22:49:09.495Z,14.60
2017-08-09T22:51:36.893Z,14.60
2017-08-09T22:54:04.308Z,14.70
2017-08-09T22:56:31.743Z,14.80
2017-08-09T23:01:53.531Z,14.70
2017-08-09T23:04:20.951Z,14.60
2017-08-09T23:06:48.366Z,14.50
2017-08-09T23:09:15.786Z,14.40
2017-08-09T23:11:43.222Z,14.40
2017-08-09T23:14:10.634Z,14.50
2017-08-09T23:16:38.037Z,14.60
2017-08-09T23:19:06.242Z,14.50
2017-08-09T23:21:33.661Z,14.40
2017-08-09T23:24:01.069Z,14.40
2017-08-09T23:26:29.409Z,14.50
2017-08-09T23:28:56.822Z,14.50
2017-08-09T23:31:24.243Z,14.60
2017-08-09T23:33:51.663Z,14.70
2017-08-09T23:36:19.862Z,14.70
2017-08-09T23:38:47.273Z,14.70
2017-08-09T23:41:14.690Z,14.70
2017-08-09T23:43:42.106Z,14.70
2017-08-09T23:46:09.510Z,14.60
2017-08-09T23:48:38.114Z,14.60
2017-08-09T23:51:05.531Z,14.60
2017-08-09T23:53:32.952Z,14.70
2017-08-09T23:56:00.371Z,14.60
2017-08-09T23:58:28.145Z,14.40
